• Join FlightAware (Why Join?)
  • Login
  • US Flag 
08:28AM EDT


 

Airport Tracker/Info


-or-


 

Live Flight TrackerFlight Track Log ✈ SLI534 ✈ 08-May-2013 ✈ MMMD / MID - MMMX / MEX

Flight Track Log - Related Links

Times and Time Zones

All times are in EDT time to prevent confusion due to time zone crossing. See the SLI534 flight status page for this flight to view local times or setup timezone preferences in your user account.

Time Position Orientation Groundspeed Altitude Reporting Facility
EDT Latitude Longitude Course Direction KTS MPH feet Rate Location/Type
05:21PM 20.9001 -89.9371 262° West  Level Estimated
05:22PM 20.8877 -90.0303 262° West  Level Estimated
05:23PM 20.8753 -90.1234 262° West  Level Estimated
05:24PM 20.8628 -90.2165 262° West  Level Estimated
05:25PM 20.8503 -90.3095 262° West  Level Estimated
05:26PM 20.8377 -90.4026 262° West  Level Estimated
05:27PM 20.8250 -90.4957 262° West  Level Estimated
05:28PM 20.8123 -90.5887 262° West  Level Estimated
05:29PM 20.7996 -90.6817 262° West  Level Estimated
05:30PM 20.7868 -90.7747 262° West  Level Estimated
05:31PM 20.7740 -90.8677 262° West  Level Estimated
05:32PM 20.7611 -90.9607 262° West  Level Estimated
05:33PM 20.7481 -91.0536 262° West  Level Estimated
05:34PM 20.7351 -91.1466 262° West  Level Estimated
05:35PM 20.7221 -91.2395 261° West  Level Estimated
05:36PM 20.7090 -91.3324 261° West  Level Estimated
05:37PM 20.6959 -91.4253 261° West  Level Estimated
05:38PM 20.6827 -91.5182 261° West  Level Estimated
05:39PM 20.6694 -91.6110 261° West  Level Estimated
05:40PM 20.6562 -91.7038 261° West  Level Estimated
05:41PM 20.6428 -91.7967 261° West  Level Estimated
05:42PM 20.6294 -91.8895 261° West  Level Estimated
05:43PM 20.6160 -91.9823 261° West  Level Estimated
05:44PM 20.6025 -92.0751 261° West  Level Estimated
05:45PM 20.5889 -92.1678 261° West  Level Estimated
05:46PM 20.5754 -92.2606 261° West  Level Estimated
05:47PM 20.5617 -92.3533 261° West  Level Estimated
05:48PM 20.5480 -92.4460 261° West  Level Estimated
05:49PM 20.5343 -92.5387 261° West  Level Estimated
05:50PM 20.5205 -92.6314 261° West  Level Estimated
05:51PM 20.5067 -92.7240 261° West  Level Estimated
05:52PM 20.4928 -92.8167 261° West  Level Estimated
05:53PM 20.4788 -92.9093 261° West  Level Estimated
05:54PM 20.4649 -93.0019 261° West  Level Estimated
05:55PM 20.4508 -93.0945 261° West  Level Estimated
05:56PM 20.4368 -93.1871 261° West  Level Estimated
05:57PM 20.4226 -93.2796 261° West  Level Estimated
05:58PM 20.4084 -93.3722 261° West  Level Estimated
05:59PM 20.3942 -93.4647 261° West  Level Estimated
06:00PM 20.3799 -93.5572 261° West  Level Estimated
06:01PM 20.3656 -93.6497 261° West  Level Estimated
06:02PM 20.3512 -93.7422 261° West  Level Estimated
06:03PM 20.3368 -93.8346 261° West  Level Estimated
06:04PM 20.3223 -93.9271 261° West  Level Estimated
06:05PM 20.3078 -94.0195 261° West  Level Estimated
06:06PM 20.2932 -94.1119 260° West  Level Estimated
06:07PM 20.2786 -94.2043 260° West  Level Estimated
06:08PM 20.2640 -94.2966 260° West  Level Estimated
06:09PM 20.2492 -94.3890 260° West  Level Estimated
06:10PM 20.2345 -94.4813 260° West  Level Estimated
06:11PM 20.2197 -94.5736 260° West  Level Estimated
06:12PM 20.2048 -94.6659 260° West  Level Estimated
06:13PM 20.1899 -94.7582 260° West  Level Estimated
06:14PM 20.1749 -94.8505 260° West  Level Estimated
06:15PM 20.1599 -94.9427 260° West  Level Estimated
06:16PM 20.1449 -95.0350 260° West  Level Estimated
06:17PM 20.1298 -95.1272 260° West  Level Estimated
06:18PM 20.1146 -95.2194 260° West  Level Estimated
06:19PM 20.0994 -95.3115 260° West  Level Estimated
06:20PM 20.0842 -95.4037 260° West  Level Estimated
06:21PM 20.0689 -95.4958 260° West  Level Estimated
06:22PM 20.0536 -95.5880 260° West  Level Estimated
06:23PM 20.0382 -95.6801 260° West  Level Estimated
06:24PM 20.0228 -95.7721 260° West  Level Estimated
06:25PM 20.0073 -95.8642 260° West  Level Estimated
06:26PM 19.9917 -95.9563 260° West  Level Estimated
06:27PM 19.9762 -96.0483 260° West  Level Estimated
06:28PM 19.9605 -96.1403 260° West  Level Estimated
06:29PM 19.9449 -96.2323 260° West  Level Estimated
06:30PM 19.9291 -96.3242 260° West  Level Estimated
06:31PM 19.9134 -96.4162 260° West  Level Estimated
06:32PM 19.8976 -96.5081 260° West  Level Estimated
06:33PM 19.8817 -96.6001 260° West  Level Estimated
06:34PM 19.8658 -96.6920 260° West  Level Estimated
06:35PM 19.8498 -96.7839 260° West  Level Estimated
06:36PM 19.8338 -96.8757 260° West  Level Estimated
06:37PM 19.8178 -96.9676 259° West  Level Estimated
06:38PM 19.8017 -97.0594 259° West  Level Estimated
06:39PM 19.7855 -97.1512 259° West  Level Estimated
06:40PM 19.7694 -97.2430 259° West  Level Estimated
06:41PM 19.7531 -97.3348 259° West  Level Estimated
06:42PM 19.7368 -97.4265 259° West  Level Estimated
06:43PM 19.7205 -97.5182 259° West  Level Estimated
06:44PM 19.7041 -97.6100 259° West  Level Estimated
06:45PM 19.6877 -97.7017 259° West  Level Estimated
06:46PM 19.6712 -97.7933 259° West  Level Estimated
06:47PM 19.6547 -97.8850 259° West  Level Estimated
06:48PM 19.6382 -97.9766 259° West  Level Estimated
06:49PM 19.6215 -98.0683 259° West  Level Estimated
06:50PM 19.6049 -98.1599 259° West  Level Estimated
06:51PM 19.5882 -98.2514 259° West  Level Estimated
06:52PM 19.5714 -98.3430 259° West  Level Estimated
06:53PM 19.5546 -98.4345 259° West  Level Estimated
06:54PM 19.5378 -98.5261 259° West  Level Estimated
06:55PM 19.5209 -98.6176 259° West  Level Estimated
06:56PM 19.5040 -98.7091 259° West  Level Estimated
06:57PM 19.4870 -98.8005 259° West  Level Estimated
06:58PM 19.4700 -98.8920 259° West  Level Estimated
06:59PM 19.4529 -98.9834 259° West  Level Estimated
07:00PM 19.4363 -99.0721 259° West  Level Estimated
07:01PM 19.4363 -99.0721 43° Northeast  Level Estimated
07:02PM 19.4363 -99.0721 43° Northeast  Level Estimated
07:03PM 19.4363 -99.0721 43° Northeast  Level Estimated
07:04PM 19.4363 -99.0721 43° Northeast  Level Estimated
07:05PM 19.4363 -99.0721 43° Northeast  Level Estimated
07:06PM 19.4363 -99.0721 43° Northeast  Level Estimated
07:07PM 19.4363 -99.0721 43° Northeast  Level Estimated
07:08PM 19.4363 -99.0721 43° Northeast  Level Estimated
07:09PM 19.4363 -99.0721 43° Northeast  Level Estimated